Time;durP1;ratioP1;P1;durP2;ratioP2;P2;SDS_P1;SDS_P2;PMS_P1;PMS_P2;Temp;Humidity;BMP_temperature;BMP_pressure;BME280_temperature;BME280_humidity;BME280_pressure;Samples;Min_cycle;Max_cycle;Signal;HPM_P1;HPM_P2
2022/10/20 00:00:18;;;;;;;39.50;27.42;;;;;;;13.26;66.72;95666.25;5051368;28;20051;-77
2022/10/20 00:02:44;;;;;;;44.75;28.90;;;;;;;13.36;67.48;95705.31;5050579;28;20119;-77
2022/10/20 00:05:09;;;;;;;37.63;27.20;;;;;;;13.50;67.57;95739.03;5051106;28;20144;-77
2022/10/20 00:07:34;;;;;;;39.63;27.13;;;;;;;13.39;67.56;95702.09;5068941;28;20067;-78
2022/10/20 00:10:00;;;;;;;41.40;27.42;;;;;;;13.57;67.77;95737.94;5068846;28;20487;-77
2022/10/20 00:12:25;;;;;;;46.83;28.83;;;;;;;13.19;67.49;95672.97;5069318;28;20040;-78
2022/10/20 00:14:51;;;;;;;39.15;28.65;;;;;;;13.59;67.30;95736.56;5069557;28;20113;-77
2022/10/20 00:17:16;;;;;;;40.80;29.20;;;;;;;13.50;67.71;95723.03;5068859;28;20119;-78
2022/10/20 00:19:42;;;;;;;40.72;29.20;;;;;;;13.12;67.58;95679.34;5069399;28;20044;-78
2022/10/20 00:22:07;;;;;;;36.78;27.55;;;;;;;13.43;67.79;95738.56;5068207;28;20094;-78
2022/10/20 00:24:33;;;;;;;37.72;26.77;;;;;;;13.00;67.53;95656.78;5068745;28;20124;-78
2022/10/20 00:26:58;;;;;;;39.50;26.90;;;;;;;13.01;67.28;95672.50;5071559;28;20506;-77
2022/10/20 00:29:23;;;;;;;41.03;25.27;;;;;;;13.32;67.11;95736.25;5054813;28;20110;-78
2022/10/20 00:31:49;;;;;;;39.33;24.30;;;;;;;13.08;66.88;95690.81;5072928;28;20079;-77
2022/10/20 00:34:14;;;;;;;35.03;26.15;;;;;;;13.11;66.91;95684.97;5054617;28;20056;-78
2022/10/20 00:36:40;;;;;;;31.27;23.52;;;;;;;13.26;66.47;95700.88;5073167;28;20048;-77
2022/10/20 00:39:05;;;;;;;35.58;23.90;;;;;;;13.00;66.58;95662.13;5072706;28;20044;-78
2022/10/20 00:41:32;;;;;;;31.98;23.38;;;;;;;13.44;65.80;95724.16;5073075;28;20071;-78
2022/10/20 00:43:59;;;;;;;30.08;21.30;;;;;;;13.30;65.67;95717.88;5054274;28;20040;-77
2022/10/20 00:46:24;;;;;;;33.10;21.48;;;;;;;13.27;65.58;95710.44;5072647;28;20047;-77
2022/10/20 00:48:58;;;;;;;32.47;20.85;;;;;;;13.04;65.20;95676.50;5054571;28;20425;-77
2022/10/20 00:51:27;;;;;;;29.88;20.70;;;;;;;13.32;65.09;95706.94;5072969;28;20068;-77
2022/10/20 00:53:59;;;;;;;33.13;20.00;;;;;;;13.22;64.77;95702.47;5072666;28;20102;-77
2022/10/20 00:56:25;;;;;;;32.42;19.10;;;;;;;13.14;64.77;95705.72;5054306;28;20051;-78
2022/10/20 00:58:50;;;;;;;30.23;19.83;;;;;;;13.01;64.39;95674.38;5072212;28;20044;-78
2022/10/20 01:01:17;;;;;;;22.98;17.73;;;;;;;12.88;64.30;95659.03;5072554;28;20041;-77
2022/10/20 01:03:48;;;;;;;27.58;18.00;;;;;;;13.31;63.93;95714.13;5055328;28;20052;-75
2022/10/20 01:06:15;;;;;;;25.15;16.80;;;;;;;13.05;63.86;95694.81;5055957;28;20117;-75
2022/10/20 01:08:41;;;;;;;26.73;17.17;;;;;;;13.26;63.64;95722.19;5055862;28;20052;-75
2022/10/20 01:11:21;;;;;;;25.70;16.73;;;;;;;13.27;63.46;95714.97;5073946;28;20166;-75
2022/10/20 01:14:11;;;;;;;31.40;17.17;;;;;;;13.38;63.00;95716.50;5055671;28;20052;-75
2022/10/20 01:16:55;;;;;;;26.83;16.40;;;;;;;13.26;63.14;95719.50;5073572;28;20423;-75
2022/10/20 01:19:58;;;;;;;27.88;16.25;;;;;;;13.32;62.92;95715.72;5073531;28;20423;-75
2022/10/20 01:22:36;;;;;;;25.45;15.98;;;;;;;12.81;62.90;95654.00;5055303;28;20517;-75
2022/10/20 01:25:10;;;;;;;23.15;15.63;;;;;;;13.21;63.02;95721.38;5055240;28;20045;-75
2022/10/20 01:27:43;;;;;;;21.85;15.13;;;;;;;12.90;62.94;95675.50;5074113;28;20123;-75
2022/10/20 01:30:16;;;;;;;22.20;15.27;;;;;;;13.12;63.16;95718.50;5078545;28;20047;-75
2022/10/20 01:32:42;;;;;;;21.70;15.15;;;;;;;13.19;62.55;95720.91;5094263;28;20524;-75
2022/10/20 01:35:25;;;;;;;22.45;14.90;;;;;;;13.09;62.78;95719.84;5093508;28;20052;-75
2022/10/20 01:38:03;;;;;;;20.35;15.25;;;;;;;12.92;63.03;95692.00;5074889;28;20059;-75
2022/10/20 01:40:39;;;;;;;28.55;15.00;;;;;;;12.84;62.77;95677.38;5093558;28;20412;-75
2022/10/20 01:43:10;;;;;;;25.90;13.80;;;;;;;13.01;62.57;95699.13;5075416;28;20130;-75
2022/10/20 01:45:40;;;;;;;22.85;13.73;;;;;;;12.66;62.69;95660.19;5093010;28;20382;-75
2022/10/20 01:48:08;;;;;;;21.13;14.27;;;;;;;12.88;62.65;95689.09;5075235;28;20118;-75
2022/10/20 01:50:35;;;;;;;27.92;15.52;;;;;;;12.84;63.35;95727.16;5093294;28;20752;-75
2022/10/20 01:53:01;;;;;;;21.50;14.95;;;;;;;12.51;63.90;95686.09;5093450;28;20047;-75
2022/10/20 01:55:27;;;;;;;24.15;15.82;;;;;;;12.64;64.48;95728.06;5093520;28;20032;-75
2022/10/20 01:58:20;;;;;;;27.67;15.90;;;;;;;12.52;64.81;95738.22;5075587;28;20036;-75
2022/10/20 02:00:47;;;;;;;20.67;14.00;;;;;;;12.17;64.97;95686.75;5093197;28;20506;-75
2022/10/20 02:03:35;;;;;;;23.38;13.82;;;;;;;12.54;65.00;95726.22;5075182;28;20043;-75
2022/10/20 02:06:12;;;;;;;22.35;14.75;;;;;;;12.58;64.47;95729.16;5093822;28;20406;-76
2022/10/20 02:08:58;;;;;;;25.50;14.90;;;;;;;12.45;65.28;95727.06;5093353;28;20051;-75
2022/10/20 02:11:26;;;;;;;21.23;13.93;;;;;;;12.49;65.38;95733.44;5074014;28;20032;-75
2022/10/20 02:13:55;;;;;;;23.35;16.30;;;;;;;12.28;65.53;95720.19;5075060;28;20031;-75
2022/10/20 02:16:37;;;;;;;27.75;16.15;;;;;;;12.32;65.52;95731.09;5074660;28;20481;-75
2022/10/20 02:19:06;;;;;;;22.83;16.30;;;;;;;11.92;65.81;95684.13;5074874;28;20540;-75
2022/10/20 02:21:32;;;;;;;22.55;15.82;;;;;;;12.06;66.58;95721.56;5092748;28;20043;-75
2022/10/20 02:24:02;;;;;;;25.45;16.75;;;;;;;11.99;66.29;95713.88;5092873;28;20474;-75
2022/10/20 02:26:31;;;;;;;22.98;16.67;;;;;;;12.28;66.50;95736.16;5072527;28;20105;-75
2022/10/20 02:29:02;;;;;;;26.55;17.10;;;;;;;12.22;66.80;95739.91;5073026;28;20044;-75
2022/10/20 02:31:28;;;;;;;26.83;15.38;;;;;;;12.03;66.82;95712.28;5035048;28;20732;-75
2022/10/20 02:33:56;;;;;;;25.23;16.00;;;;;;;11.78;66.74;95683.91;5053929;28;20059;-75
2022/10/20 02:36:27;;;;;;;26.13;17.02;;;;;;;12.02;66.80;95733.81;5072366;28;20044;-75
2022/10/20 02:38:55;;;;;;;24.15;15.77;;;;;;;12.11;66.40;95741.00;5051882;28;20506;-75
2022/10/20 02:41:21;;;;;;;21.88;14.48;;;;;;;11.93;66.44;95704.34;5080008;28;20646;-75
2022/10/20 02:43:46;;;;;;;25.58;15.80;;;;;;;11.79;66.69;95705.97;5071278;28;20125;-75
2022/10/20 02:46:12;;;;;;;23.55;15.90;;;;;;;12.07;66.82;95765.72;5077856;28;20046;-75
2022/10/20 02:48:37;;;;;;;28.35;17.83;;;;;;;11.55;67.72;95689.72;5079582;28;20090;-75
2022/10/20 02:51:06;;;;;;;26.85;16.77;;;;;;;11.88;67.17;95722.97;5050440;28;20047;-75
2022/10/20 02:53:32;;;;;;;22.40;16.45;;;;;;;11.92;67.04;95742.59;5053059;28;20059;-75
2022/10/20 02:55:57;;;;;;;25.75;17.38;;;;;;;12.12;67.02;95765.72;5054642;28;20048;-75
2022/10/20 02:58:23;;;;;;;22.15;15.73;;;;;;;11.36;67.24;95657.63;5072032;28;20482;-75
2022/10/20 03:00:49;;;;;;;24.88;15.98;;;;;;;11.99;66.37;95767.84;5072477;28;20044;-76
2022/10/20 03:03:16;;;;;;;25.05;16.98;;;;;;;11.68;66.83;95744.19;5053977;28;20040;-75
2022/10/20 03:05:43;;;;;;;22.55;15.35;;;;;;;11.48;66.72;95713.13;5090496;28;20032;-75
2022/10/20 03:08:09;;;;;;;24.58;15.30;;;;;;;11.74;66.79;95754.59;5071649;28;20035;-75
2022/10/20 03:10:36;;;;;;;23.73;16.17;;;;;;;11.56;67.53;95757.75;5071368;28;20524;-75
2022/10/20 03:13:02;;;;;;;28.65;15.75;;;;;;;11.67;66.94;95772.63;5074043;28;20040;-75
2022/10/20 03:15:27;;;;;;;29.00;16.40;;;;;;;11.35;67.10;95727.72;5059769;28;20037;-75
2022/10/20 03:17:53;;;;;;;24.48;15.70;;;;;;;11.33;67.19;95721.88;5090838;28;20092;-75
2022/10/20 03:20:18;;;;;;;22.52;16.55;;;;;;;11.20;67.71;95717.09;5092247;28;20053;-75
2022/10/20 03:22:44;;;;;;;25.58;15.38;;;;;;;11.25;67.80;95724.25;5091202;28;20055;-74
2022/10/20 03:25:09;;;;;;;30.70;16.90;;;;;;;11.56;67.42;95782.44;5051816;28;20492;-74
2022/10/20 03:27:34;;;;;;;27.05;16.63;;;;;;;11.03;68.39;95708.56;5066789;28;20428;-74
2022/10/20 03:30:00;;;;;;;29.65;16.58;;;;;;;11.37;68.05;95754.00;5052801;28;20129;-74
2022/10/20 03:32:25;;;;;;;23.85;14.93;;;;;;;11.19;68.36;95739.38;5071493;28;20431;-74
2022/10/20 03:34:51;;;;;;;22.73;15.88;;;;;;;11.15;67.91;95709.09;5071690;28;20063;-75
2022/10/20 03:37:16;;;;;;;29.65;16.13;;;;;;;10.95;67.73;95696.59;5071671;28;20040;-74
2022/10/20 03:39:41;;;;;;;24.92;15.38;;;;;;;10.99;67.40;95700.31;5070614;28;20036;-74
2022/10/20 03:42:07;;;;;;;26.58;15.52;;;;;;;11.47;67.97;95781.38;5071484;28;20044;-74
2022/10/20 03:44:32;;;;;;;25.48;14.75;;;;;;;11.29;68.61;95767.81;5053234;28;20042;-75
2022/10/20 03:46:59;;;;;;;27.70;15.90;;;;;;;11.31;68.20;95763.00;5053442;28;20139;-74
2022/10/20 03:49:24;;;;;;;23.52;15.70;;;;;;;11.20;68.42;95765.66;5070956;28;20095;-74
2022/10/20 03:51:50;;;;;;;31.13;16.85;;;;;;;11.21;68.44;95763.81;5054707;28;20040;-74
2022/10/20 03:54:15;;;;;;;24.98;16.65;;;;;;;10.90;68.02;95703.75;5072311;28;20107;-74
2022/10/20 03:56:40;;;;;;;23.00;15.60;;;;;;;11.51;68.64;95800.25;5072794;28;20476;-74
2022/10/20 03:59:06;;;;;;;24.75;16.92;;;;;;;11.48;68.56;95801.56;5071898;28;20040;-74
2022/10/20 04:01:33;;;;;;;26.88;16.63;;;;;;;11.61;68.53;95800.25;5072857;28;20032;-74
2022/10/20 04:03:59;;;;;;;23.13;15.15;;;;;;;11.36;68.10;95763.84;5054674;28;20498;-74
2022/10/20 04:06:25;;;;;;;23.23;15.95;;;;;;;11.13;67.82;95721.84;5072902;28;20051;-75
2022/10/20 04:08:50;;;;;;;26.02;15.40;;;;;;;11.17;67.82;95723.72;5066248;28;20041;-75
2022/10/20 04:11:15;;;;;;;27.30;16.67;;;;;;;11.27;68.17;95767.28;5067875;28;20090;-75
2022/10/20 04:13:41;;;;;;;22.05;16.13;;;;;;;10.15;67.68;95575.16;5049090;28;20139;-75
2022/10/20 04:16:07;;;;;;;24.95;16.15;;;;;;;11.54;67.91;95797.84;5050933;28;20047;-75
2022/10/20 04:18:32;;;;;;;26.58;16.65;;;;;;;11.16;68.36;95745.19;5058984;28;20122;-74
2022/10/20 04:20:58;;;;;;;37.20;16.05;;;;;;;11.08;68.09;95743.06;5045981;28;20101;-74
2022/10/20 04:23:23;;;;;;;25.35;17.17;;;;;;;11.34;68.43;95783.75;5069498;28;20050;-75
2022/10/20 04:25:49;;;;;;;28.30;17.65;;;;;;;11.54;67.81;95805.81;5067777;28;20372;-74
2022/10/20 04:28:16;;;;;;;31.85;18.00;;;;;;;11.71;67.60;95800.25;5055589;28;20037;-75
2022/10/20 04:30:42;;;;;;;31.02;16.40;;;;;;;10.50;67.61;95636.28;5059407;28;20044;-74
2022/10/20 04:33:07;;;;;;;27.83;16.30;;;;;;;11.30;68.56;95787.97;5035185;28;20162;-74
2022/10/20 04:35:33;;;;;;;29.20;17.95;;;;;;;10.89;69.19;95745.41;5047039;28;20025;-75
2022/10/20 04:37:58;;;;;;;28.45;16.98;;;;;;;11.17;69.58;95807.88;5058109;28;20431;-75
2022/10/20 04:40:24;;;;;;;28.65;17.58;;;;;;;11.10;69.54;95804.66;5043986;28;20043;-75
2022/10/20 04:42:49;;;;;;;26.80;17.00;;;;;;;10.68;69.50;95728.63;5050075;28;20584;-75
2022/10/20 04:45:15;;;;;;;30.23;17.65;;;;;;;11.15;69.64;95792.19;5061277;28;20112;-74
2022/10/20 04:47:40;;;;;;;25.40;17.23;;;;;;;11.13;69.02;95775.75;5058862;28;20045;-75
2022/10/20 04:50:06;;;;;;;34.75;18.42;;;;;;;11.32;69.40;95815.06;5060576;28;20041;-75
2022/10/20 04:52:31;;;;;;;30.95;19.13;;;;;;;11.03;69.01;95746.53;5058315;28;20417;-74
2022/10/20 04:54:57;;;;;;;28.83;18.73;;;;;;;10.94;68.87;95726.06;5043490;28;20480;-75
2022/10/20 04:57:22;;;;;;;30.30;17.13;;;;;;;11.11;68.29;95753.97;5046475;28;20066;-75
2022/10/20 04:59:48;;;;;;;28.88;17.10;;;;;;;11.50;68.69;95822.56;5039000;28;20036;-76
2022/10/20 05:02:13;;;;;;;29.77;17.50;;;;;;;10.99;69.45;95779.94;5043618;28;20067;-75
2022/10/20 05:04:39;;;;;;;29.02;17.02;;;;;;;10.79;69.84;95795.78;5041218;28;20039;-75
2022/10/20 05:07:04;;;;;;;33.35;18.55;;;;;;;10.93;69.58;95794.25;5057641;28;20063;-75
2022/10/20 05:09:31;;;;;;;27.58;19.25;;;;;;;10.90;69.65;95789.47;5059209;28;20068;-75
2022/10/20 05:11:58;;;;;;;34.33;21.00;;;;;;;11.12;70.41;95834.41;5033074;28;20044;-76
2022/10/20 05:14:23;;;;;;;41.13;24.50;;;;;;;10.67;70.04;95771.34;5055786;28;20055;-78
2022/10/20 05:16:49;;;;;;;36.20;22.13;;;;;;;10.77;69.49;95789.94;5041666;28;20040;-76
2022/10/20 05:19:14;;;;;;;38.10;23.80;;;;;;;11.23;69.49;95843.97;5034568;28;20268;-77
2022/10/20 05:21:40;;;;;;;35.88;22.55;;;;;;;11.29;69.58;95850.91;5035172;28;21182;-76
2022/10/20 05:24:05;;;;;;;33.00;20.40;;;;;;;10.86;69.97;95814.13;5053001;28;20113;-75
2022/10/20 05:26:35;;;;;;;39.33;21.08;;;;;;;10.92;69.85;95795.31;5057903;28;20064;-76
2022/10/20 05:29:03;;;;;;;35.63;20.20;;;;;;;11.22;69.46;95860.97;5041681;28;21786;-77
2022/10/20 05:31:28;;;;;;;34.78;20.02;;;;;;;10.84;69.41;95798.44;5063491;28;20775;-77
2022/10/20 05:33:55;;;;;;;27.95;19.35;;;;;;;10.43;69.98;95747.09;5043261;28;20126;-76
2022/10/20 05:36:24;;;;;;;36.95;19.25;;;;;;;11.07;70.70;95874.97;5060010;28;20100;-76
2022/10/20 05:38:53;;;;;;;35.70;21.13;;;;;;;10.78;70.87;95831.34;5056456;28;20852;-77
2022/10/20 05:41:24;;;;;;;35.60;20.42;;;;;;;10.95;70.70;95863.78;5031403;28;20048;-76
2022/10/20 05:43:56;;;;;;;32.17;20.47;;;;;;;10.74;70.69;95847.00;5033827;28;20796;-77
2022/10/20 05:46:22;;;;;;;31.48;18.35;;;;;;;10.90;70.40;95857.66;5058870;28;20044;-75
2022/10/20 05:48:47;;;;;;;28.05;18.58;;;;;;;10.16;70.59;95759.63;5057098;28;20046;-76
2022/10/20 05:51:17;;;;;;;28.45;19.45;;;;;;;11.06;70.92;95909.78;5058392;28;20120;-77
2022/10/20 05:53:43;;;;;;;31.35;19.27;;;;;;;10.59;70.48;95838.16;5020322;28;20150;-77
2022/10/20 05:56:11;;;;;;;32.45;18.42;;;;;;;10.82;70.88;95888.16;5047782;28;20112;-77
2022/10/20 05:58:38;;;;;;;27.42;19.02;;;;;;;10.56;70.83;95857.22;5042551;28;20136;-77
2022/10/20 06:01:18;;;;;;;29.67;19.55;;;;;;;10.23;70.77;95795.50;5035278;28;20533;-76
2022/10/20 06:03:55;;;;;;;38.67;20.45;;;;;;;10.84;70.55;95878.84;5036122;28;20041;-77
2022/10/20 06:06:23;;;;;;;28.10;18.13;;;;;;;10.87;70.51;95887.38;5060781;28;20060;-76
2022/10/20 06:08:49;;;;;;;34.33;19.25;;;;;;;11.23;70.63;95936.91;5042187;28;20032;-76
2022/10/20 06:11:16;;;;;;;34.58;19.52;;;;;;;11.32;70.70;95947.84;5032152;28;20545;-78
2022/10/20 06:13:41;;;;;;;34.08;18.80;;;;;;;11.41;70.39;95943.63;5060095;28;20062;-78
2022/10/20 06:16:10;;;;;;;37.60;20.38;;;;;;;10.58;70.82;95839.19;5051560;28;20044;-77
2022/10/20 06:18:39;;;;;;;30.10;19.63;;;;;;;10.58;71.03;95839.19;5045548;28;20507;-77
2022/10/20 06:21:18;;;;;;;32.80;21.13;;;;;;;10.08;71.07;95769.66;5039117;28;20063;-77
2022/10/20 06:23:44;;;;;;;36.90;19.35;;;;;;;10.86;71.13;95889.22;5031230;28;20101;-80
2022/10/20 06:26:12;;;;;;;32.22;20.95;;;;;;;10.32;71.84;95817.81;5051165;28;20865;-78
2022/10/20 06:28:39;;;;;;;32.28;21.17;;;;;;;11.01;72.09;95915.84;5031925;28;20490;-78
2022/10/20 06:31:16;;;;;;;37.50;22.40;;;;;;;11.00;71.91;95900.16;5052775;28;20036;-78
2022/10/20 06:33:43;;;;;;;33.33;20.48;;;;;;;11.09;72.02;95959.66;5039319;28;20048;-79
2022/10/20 06:36:09;;;;;;;42.17;22.17;;;;;;;11.32;72.07;95969.88;5038355;28;20071;-78
2022/10/20 06:38:35;;;;;;;35.63;22.95;;;;;;;11.24;72.64;95981.00;5035844;28;20044;-78
2022/10/20 06:41:05;;;;;;;38.95;22.63;;;;;;;10.73;72.87;95887.03;5029190;28;20044;-77
2022/10/20 06:43:30;;;;;;;33.97;21.25;;;;;;;11.07;72.78;95944.00;5030958;28;20840;-78
2022/10/20 06:46:01;;;;;;;34.72;22.75;;;;;;;11.35;72.68;95985.31;5036676;28;20052;-78
2022/10/20 06:48:27;;;;;;;32.70;22.15;;;;;;;11.39;72.08;95978.41;5052083;28;20727;-78
2022/10/20 06:51:02;;;;;;;35.28;20.98;;;;;;;11.48;71.88;95982.19;5065693;28;20063;-80
2022/10/20 06:53:29;;;;;;;33.63;21.05;;;;;;;10.30;72.31;95789.97;5031377;28;20045;-79
2022/10/20 06:56:05;;;;;;;42.78;21.10;;;;;;;11.58;71.62;95981.44;5025811;28;20040;-79
2022/10/20 06:58:31;;;;;;;33.97;21.48;;;;;;;11.19;71.83;95922.56;5052208;28;20707;-82
2022/10/20 07:01:05;;;;;;;38.47;21.92;;;;;;;11.60;71.69;95989.91;5043622;28;20445;-81
2022/10/20 07:03:32;;;;;;;38.65;21.35;;;;;;;11.59;71.09;95986.47;5049889;28;20130;-79
2022/10/20 07:05:57;;;;;;;37.67;20.63;;;;;;;11.16;71.16;95920.41;5062125;28;20456;-79
2022/10/20 07:08:25;;;;;;;35.00;21.23;;;;;;;11.07;70.88;95882.94;5064283;28;20041;-78
2022/10/20 07:11:04;;;;;;;32.13;21.48;;;;;;;11.60;70.56;95974.78;5054459;28;20040;-78
2022/10/20 07:13:30;;;;;;;30.63;20.80;;;;;;;11.79;70.25;95991.09;5035025;28;20105;-77
2022/10/20 07:15:57;;;;;;;28.00;19.00;;;;;;;11.82;70.25;95995.09;5032808;28;20045;-78
2022/10/20 07:18:27;;;;;;;27.77;19.92;;;;;;;11.80;69.80;95970.63;5024769;28;20633;-84
2022/10/20 07:20:58;;;;;;;30.88;20.65;;;;;;;11.65;69.94;95962.59;5032265;28;20091;-78
2022/10/20 07:23:24;;;;;;;27.50;19.05;;;;;;;11.43;69.71;95918.44;5055162;28;20102;-78
2022/10/20 07:25:50;;;;;;;29.85;19.83;;;;;;;11.88;69.56;96000.16;5048966;28;20501;-78
2022/10/20 07:28:15;;;;;;;29.73;19.00;;;;;;;11.38;69.35;95923.69;5047068;28;20054;-78
2022/10/20 07:30:41;;;;;;;40.08;21.42;;;;;;;11.89;69.68;95988.47;5034031;28;20044;-79
2022/10/20 07:33:08;;;;;;;29.00;18.88;;;;;;;11.69;68.93;95948.50;5044131;28;20056;-79
2022/10/20 07:35:35;;;;;;;32.90;20.08;;;;;;;11.80;68.70;95982.06;5065693;28;20082;-77
2022/10/20 07:38:00;;;;;;;33.70;19.63;;;;;;;11.63;68.56;95965.50;5046780;28;20041;-76
2022/10/20 07:40:26;;;;;;;27.15;18.45;;;;;;;11.75;68.27;95952.03;5041371;28;20071;-77
2022/10/20 07:42:52;;;;;;;25.50;18.02;;;;;;;11.55;68.27;95907.56;5064206;28;20046;-76
2022/10/20 07:45:17;;;;;;;28.25;17.15;;;;;;;11.88;68.09;95949.66;5039111;28;20155;-76
2022/10/20 07:47:43;;;;;;;28.38;17.83;;;;;;;12.18;67.89;95990.66;5036565;28;20048;-77
2022/10/20 07:50:09;;;;;;;31.75;18.35;;;;;;;11.87;67.88;95957.91;5042144;28;20037;-77
2022/10/20 07:52:34;;;;;;;32.05;19.50;;;;;;;12.18;67.54;95980.84;5055845;28;20071;-77
2022/10/20 07:55:00;;;;;;;25.20;18.00;;;;;;;12.16;67.34;95982.16;5052409;28;20103;-77
2022/10/20 07:57:25;;;;;;;25.60;18.15;;;;;;;11.97;68.08;95984.50;5033682;28;20033;-78
2022/10/20 07:59:51;;;;;;;31.23;19.10;;;;;;;12.06;67.64;95974.94;5034611;28;20316;-77
2022/10/20 08:02:16;;;;;;;29.52;18.27;;;;;;;12.19;67.14;95984.28;5036028;28;20540;-77
2022/10/20 08:04:43;;;;;;;27.58;17.73;;;;;;;11.83;67.17;95915.09;5040315;28;20127;-77
2022/10/20 08:07:09;;;;;;;30.27;17.42;;;;;;;11.77;66.31;95916.16;5055467;28;20037;-79
2022/10/20 08:09:35;;;;;;;34.80;18.92;;;;;;;11.94;65.81;95921.22;5038697;28;20131;-76
2022/10/20 08:12:02;;;;;;;32.92;18.15;;;;;;;12.23;66.04;95961.41;5044824;28;20083;-76
2022/10/20 08:14:30;;;;;;;25.23;16.50;;;;;;;12.28;65.19;95940.16;5040243;28;20104;-76
2022/10/20 08:16:56;;;;;;;25.63;15.95;;;;;;;12.14;64.61;95939.06;5057926;28;20032;-76
2022/10/20 08:19:21;;;;;;;29.75;16.25;;;;;;;12.22;64.69;95917.25;5037809;28;20045;-76
2022/10/20 08:21:47;;;;;;;22.95;14.80;;;;;;;12.67;64.23;95977.66;5038822;28;20042;-76
2022/10/20 08:24:12;;;;;;;25.70;15.13;;;;;;;12.28;63.84;95926.88;5056436;28;20028;-76
2022/10/20 08:26:38;;;;;;;23.38;15.93;;;;;;;12.43;63.57;95944.69;5055386;28;20037;-77
2022/10/20 08:29:03;;;;;;;28.65;16.08;;;;;;;12.20;63.55;95904.25;5033447;28;20121;-77
2022/10/20 08:31:29;;;;;;;28.15;15.02;;;;;;;12.53;63.22;95940.16;5052329;28;20032;-77
2022/10/20 08:33:55;;;;;;;23.20;14.90;;;;;;;12.55;62.63;95923.91;5057163;28;20048;-77
2022/10/20 08:36:21;;;;;;;25.33;13.85;;;;;;;12.62;61.58;95943.06;5037630;28;20375;-77
2022/10/20 08:38:46;;;;;;;24.98;14.43;;;;;;;12.51;61.78;95925.53;5047190;28;20043;-77
2022/10/20 08:41:19;;;;;;;22.33;13.23;;;;;;;12.79;61.68;95956.09;5038925;28;20795;-78
2022/10/20 08:43:46;;;;;;;22.13;11.70;;;;;;;12.43;60.65;95899.47;5031985;28;20040;-77
2022/10/20 08:46:18;;;;;;;16.70;11.85;;;;;;;12.89;60.17;95964.84;5036027;28;20044;-77
2022/10/20 08:48:46;;;;;;;18.75;10.90;;;;;;;13.01;59.67;95956.59;5060110;28;20067;-76
2022/10/20 08:51:19;;;;;;;16.85;10.07;;;;;;;13.03;59.07;95968.59;5055450;28;20051;-80
2022/10/20 08:53:47;;;;;;;16.42;9.75;;;;;;;13.04;58.98;95958.72;5028259;28;20048;-78
2022/10/20 08:56:13;;;;;;;18.42;10.73;;;;;;;12.32;58.91;95853.44;5064711;28;20028;-78
2022/10/20 08:58:43;;;;;;;21.70;11.32;;;;;;;13.04;59.08;95959.53;5047038;28;20044;-79
2022/10/20 09:01:26;;;;;;;18.52;10.13;;;;;;;13.09;58.84;95972.03;5040329;28;20040;-78
2022/10/20 09:03:56;;;;;;;15.73;8.85;;;;;;;13.26;58.07;95953.91;5038237;28;20123;-79
2022/10/20 09:06:23;;;;;;;16.27;9.32;;;;;;;13.40;57.96;95954.94;5036293;28;20079;-79
2022/10/20 09:08:50;;;;;;;17.08;9.43;;;;;;;13.35;57.03;95957.59;5039317;28;20101;-79
2022/10/20 09:11:23;;;;;;;16.02;8.50;;;;;;;13.48;56.26;95962.34;5034859;28;20071;-78
2022/10/20 09:13:48;;;;;;;13.27;8.27;;;;;;;13.27;55.73;95920.09;5033479;28;20791;-78
2022/10/20 09:16:37;;;;;;;11.63;7.35;;;;;;;13.09;54.88;95881.50;5031454;28;20045;-78
2022/10/20 09:19:05;;;;;;;15.75;8.18;;;;;;;13.62;54.59;95954.56;5047043;28;20052;-78
2022/10/20 09:21:34;;;;;;;10.10;6.75;;;;;;;13.28;53.84;95938.44;5030024;28;20090;-78
2022/10/20 09:24:02;;;;;;;14.30;7.30;;;;;;;13.30;53.35;95930.19;5029726;28;20873;-77
2022/10/20 09:26:30;;;;;;;12.85;7.40;;;;;;;13.51;53.01;95956.47;5049966;28;20410;-78
2022/10/20 09:29:17;;;;;;;15.35;7.40;;;;;;;13.20;52.86;95898.28;5049520;28;20102;-79
2022/10/20 09:31:54;;;;;;;13.93;6.90;;;;;;;13.74;52.24;95967.56;5029452;28;20055;-78
2022/10/20 09:34:27;;;;;;;19.13;7.88;;;;;;;13.83;52.21;95964.06;5034112;28;20045;-78
2022/10/20 09:37:06;;;;;;;12.30;6.97;;;;;;;13.64;51.64;95931.13;5034992;28;20189;-77
2022/10/20 09:39:47;;;;;;;11.63;6.82;;;;;;;13.89;51.89;95973.63;5018691;28;20444;-78
2022/10/20 09:42:17;;;;;;;10.80;5.70;;;;;;;13.70;51.53;95946.00;5038683;28;20052;-77
2022/10/20 09:44:55;;;;;;;12.10;6.05;;;;;;;13.88;51.28;95961.34;5038800;28;20115;-77
2022/10/20 09:47:22;;;;;;;12.15;7.60;;;;;;;14.00;51.19;95984.25;5031093;28;20103;-77
2022/10/20 09:50:02;;;;;;;12.43;6.22;;;;;;;13.85;49.88;95881.13;5015555;28;20333;-77
2022/10/20 09:52:33;;;;;;;13.82;6.88;;;;;;;15.11;47.71;95905.94;5036251;28;20049;-76
2022/10/20 09:55:02;;;;;;;15.23;5.95;;;;;;;15.97;45.43;95890.72;5034713;28;20033;-77
2022/10/20 09:57:29;;;;;;;10.38;5.03;;;;;;;17.13;42.54;95963.03;5016913;28;20612;-77
2022/10/20 09:59:56;;;;;;;9.82;4.30;;;;;;;17.75;41.11;95950.88;5033244;28;20191;-76
2022/10/20 10:02:21;;;;;;;8.13;4.70;;;;;;;18.22;39.98;95940.75;5033860;28;20134;-77
2022/10/20 10:04:49;;;;;;;7.60;4.53;;;;;;;19.12;38.31;95953.91;5030026;28;20548;-76
2022/10/20 10:07:21;;;;;;;8.85;4.97;;;;;;;19.54;37.23;95946.34;5038605;28;20100;-77
2022/10/20 10:10:00;;;;;;;10.30;4.22;;;;;;;19.76;35.57;95911.25;5026722;28;20094;-78
2022/10/20 10:12:29;;;;;;;7.57;4.38;;;;;;;20.21;35.00;95870.63;5009183;28;20036;-79
2022/10/20 10:15:04;;;;;;;9.57;4.57;;;;;;;20.39;35.32;95947.66;5015341;28;20051;-83
2022/10/20 10:17:39;;;;;;;11.05;4.10;;;;;;;20.99;33.57;95930.59;5009106;28;20029;-79
2022/10/20 10:20:10;;;;;;;6.25;4.07;;;;;;;20.59;33.85;95941.63;4994500;28;20053;-79
2022/10/20 10:22:36;;;;;;;4.88;4.00;;;;;;;20.61;33.48;95934.00;5000134;28;20125;-79
2022/10/20 10:25:04;;;;;;;13.85;4.70;;;;;;;20.35;34.00;95927.84;5006074;28;20661;-79
2022/10/20 10:27:33;;;;;;;7.57;4.18;;;;;;;20.51;33.56;95853.50;4993201;28;20094;-77
2022/10/20 10:30:28;;;;;;;7.28;4.32;;;;;;;20.34;33.91;95902.00;5022875;28;20377;-78
2022/10/20 10:32:54;;;;;;;7.40;4.03;;;;;;;20.79;32.94;95903.22;5005502;28;20057;-78
2022/10/20 10:35:23;;;;;;;9.70;4.65;;;;;;;20.61;34.18;95922.44;5008684;28;20103;-78
2022/10/20 10:37:49;;;;;;;7.68;4.45;;;;;;;20.15;33.84;95882.66;5003552;28;23150;-78
2022/10/20 10:40:31;;;;;;;10.77;4.47;;;;;;;20.58;33.60;95885.34;5024281;28;20037;-78
2022/10/20 10:43:11;;;;;;;5.80;4.15;;;;;;;20.59;32.74;95844.63;5008793;28;20735;-78
2022/10/20 10:45:46;;;;;;;9.00;4.47;;;;;;;19.96;33.78;95891.03;5010641;28;20094;-78
2022/10/20 10:48:29;;;;;;;5.45;4.30;;;;;;;20.15;33.46;95885.34;5030211;28;20076;-78
2022/10/20 10:51:00;;;;;;;7.93;4.28;;;;;;;20.33;33.48;95912.00;5009419;28;20533;-79
2022/10/20 10:53:40;;;;;;;5.50;4.18;;;;;;;20.21;34.11;95911.81;5011859;28;20033;-78
2022/10/20 10:56:26;;;;;;;10.88;4.65;;;;;;;20.57;33.52;95898.03;5031463;28;20041;-79
2022/10/20 10:59:11;;;;;;;8.32;4.47;;;;;;;20.15;33.49;95863.78;5003111;28;20075;-78
2022/10/20 11:01:39;;;;;;;5.15;3.85;;;;;;;19.87;34.21;95898.31;5014926;28;20041;-79
2022/10/20 11:04:19;;;;;;;5.75;4.13;;;;;;;19.54;34.53;95904.09;5030583;28;20120;-78
2022/10/20 11:06:52;;;;;;;9.02;4.20;;;;;;;19.72;33.95;95894.16;5032586;28;20044;-78
2022/10/20 11:09:42;;;;;;;4.97;3.28;;;;;;;19.90;34.05;95890.41;5034304;28;20048;-77
2022/10/20 11:12:28;;;;;;;6.70;4.07;;;;;;;19.49;34.78;95893.47;5023915;28;20135;-81
2022/10/20 11:15:06;;;;;;;13.35;6.57;;;;;;;19.84;34.62;95883.56;5033802;28;20708;-79
2022/10/20 11:17:49;;;;;;;8.95;4.35;;;;;;;19.83;34.26;95851.63;5028539;28;20619;-79
2022/10/20 11:20:23;;;;;;;9.25;4.03;;;;;;;19.91;34.18;95883.13;5017348;28;20370;-79
2022/10/20 11:23:16;;;;;;;5.72;3.92;;;;;;;19.51;34.32;95891.28;5018974;28;20046;-78
2022/10/20 11:26:10;;;;;;;6.40;4.00;;;;;;;19.02;35.26;95878.88;5032710;28;20861;-78
2022/10/20 11:28:45;;;;;;;13.02;4.03;;;;;;;19.18;35.07;95831.66;5013592;28;20175;-79